sensor_id;sensor_type;location;lat;lon;timestamp;P1;durP1;ratioP1;P2;durP2;ratioP2
51525;SDS011;37611;51.794;21.590;2023-12-07T00:03:57;96.60;;;43.50;;
51525;SDS011;37611;51.794;21.590;2023-12-07T00:07:59;159.60;;;71.50;;
51525;SDS011;37611;51.794;21.590;2023-12-07T00:12:01;361.50;;;174.60;;
51525;SDS011;37611;51.794;21.590;2023-12-07T00:16:03;169.20;;;72.60;;
51525;SDS011;37611;51.794;21.590;2023-12-07T00:20:06;168.70;;;78.60;;
51525;SDS011;37611;51.794;21.590;2023-12-07T00:24:08;421.90;;;164.30;;
51525;SDS011;37611;51.794;21.590;2023-12-07T00:28:10;463.20;;;197.80;;
51525;SDS011;37611;51.794;21.590;2023-12-07T00:32:12;161.50;;;71.70;;
51525;SDS011;37611;51.794;21.590;2023-12-07T00:36:14;249.20;;;127.00;;
51525;SDS011;37611;51.794;21.590;2023-12-07T00:40:16;92.20;;;41.10;;
51525;SDS011;37611;51.794;21.590;2023-12-07T00:44:18;92.70;;;46.50;;
51525;SDS011;37611;51.794;21.590;2023-12-07T00:48:20;91.80;;;44.40;;
51525;SDS011;37611;51.794;21.590;2023-12-07T00:52:22;116.60;;;61.50;;
51525;SDS011;37611;51.794;21.590;2023-12-07T00:56:24;75.10;;;36.20;;
51525;SDS011;37611;51.794;21.590;2023-12-07T01:00:26;86.70;;;47.20;;
51525;SDS011;37611;51.794;21.590;2023-12-07T01:04:28;122.60;;;64.60;;
51525;SDS011;37611;51.794;21.590;2023-12-07T01:08:30;71.30;;;41.10;;
51525;SDS011;37611;51.794;21.590;2023-12-07T01:12:32;57.50;;;29.00;;
51525;SDS011;37611;51.794;21.590;2023-12-07T01:16:34;62.40;;;29.20;;
51525;SDS011;37611;51.794;21.590;2023-12-07T01:20:36;53.70;;;27.10;;
51525;SDS011;37611;51.794;21.590;2023-12-07T01:24:37;55.20;;;26.80;;
51525;SDS011;37611;51.794;21.590;2023-12-07T01:28:39;49.40;;;27.50;;
51525;SDS011;37611;51.794;21.590;2023-12-07T01:32:41;51.90;;;27.40;;
51525;SDS011;37611;51.794;21.590;2023-12-07T01:36:43;50.70;;;26.10;;
51525;SDS011;37611;51.794;21.590;2023-12-07T01:40:45;54.60;;;27.30;;
51525;SDS011;37611;51.794;21.590;2023-12-07T01:44:47;49.40;;;26.80;;
51525;SDS011;37611;51.794;21.590;2023-12-07T01:48:49;47.00;;;24.40;;
51525;SDS011;37611;51.794;21.590;2023-12-07T01:52:54;50.80;;;25.60;;
51525;SDS011;37611;51.794;21.590;2023-12-07T01:57:01;51.10;;;26.10;;
51525;SDS011;37611;51.794;21.590;2023-12-07T02:01:03;46.30;;;25.20;;
51525;SDS011;37611;51.794;21.590;2023-12-07T02:05:07;41.10;;;25.50;;
51525;SDS011;37611;51.794;21.590;2023-12-07T02:09:09;46.10;;;25.90;;
51525;SDS011;37611;51.794;21.590;2023-12-07T02:13:11;47.40;;;26.30;;
51525;SDS011;37611;51.794;21.590;2023-12-07T02:21:47;40.10;;;22.20;;
51525;SDS011;37611;51.794;21.590;2023-12-07T02:25:57;39.10;;;21.90;;
51525;SDS011;37611;51.794;21.590;2023-12-07T02:30:05;39.10;;;20.60;;
51525;SDS011;37611;51.794;21.590;2023-12-07T02:34:12;31.50;;;16.70;;
51525;SDS011;37611;51.794;21.590;2023-12-07T02:38:16;34.20;;;20.30;;
51525;SDS011;37611;51.794;21.590;2023-12-07T02:42:19;37.10;;;21.80;;
51525;SDS011;37611;51.794;21.590;2023-12-07T02:46:25;35.00;;;20.80;;
51525;SDS011;37611;51.794;21.590;2023-12-07T02:50:27;35.90;;;21.50;;
51525;SDS011;37611;51.794;21.590;2023-12-07T02:54:29;34.80;;;20.00;;
51525;SDS011;37611;51.794;21.590;2023-12-07T02:58:31;34.40;;;19.20;;
51525;SDS011;37611;51.794;21.590;2023-12-07T03:02:39;31.80;;;19.50;;
51525;SDS011;37611;51.794;21.590;2023-12-07T03:06:42;31.70;;;19.10;;
51525;SDS011;37611;51.794;21.590;2023-12-07T03:10:44;31.30;;;19.50;;
51525;SDS011;37611;51.794;21.590;2023-12-07T03:14:45;34.10;;;20.50;;
51525;SDS011;37611;51.794;21.590;2023-12-07T03:18:47;33.80;;;22.80;;
51525;SDS011;37611;51.794;21.590;2023-12-07T03:22:49;33.30;;;21.70;;
51525;SDS011;37611;51.794;21.590;2023-12-07T03:26:51;39.10;;;20.70;;
51525;SDS011;37611;51.794;21.590;2023-12-07T03:30:53;31.40;;;20.80;;
51525;SDS011;37611;51.794;21.590;2023-12-07T03:34:55;31.70;;;20.30;;
51525;SDS011;37611;51.794;21.590;2023-12-07T03:38:57;34.70;;;20.80;;
51525;SDS011;37611;51.794;21.590;2023-12-07T03:42:59;32.20;;;21.10;;
51525;SDS011;37611;51.794;21.590;2023-12-07T03:47:01;33.70;;;19.20;;
51525;SDS011;37611;51.794;21.590;2023-12-07T03:51:03;41.10;;;21.10;;
51525;SDS011;37611;51.794;21.590;2023-12-07T03:55:06;38.00;;;21.00;;
51525;SDS011;37611;51.794;21.590;2023-12-07T03:59:09;34.10;;;19.90;;
51525;SDS011;37611;51.794;21.590;2023-12-07T04:03:11;32.80;;;19.40;;
51525;SDS011;37611;51.794;21.590;2023-12-07T04:07:13;35.90;;;21.00;;
51525;SDS011;37611;51.794;21.590;2023-12-07T04:11:15;37.30;;;21.70;;
51525;SDS011;37611;51.794;21.590;2023-12-07T04:15:18;33.90;;;19.60;;
51525;SDS011;37611;51.794;21.590;2023-12-07T04:19:21;34.90;;;21.10;;
51525;SDS011;37611;51.794;21.590;2023-12-07T04:23:23;30.30;;;19.40;;
51525;SDS011;37611;51.794;21.590;2023-12-07T04:27:24;35.60;;;20.50;;
51525;SDS011;37611;51.794;21.590;2023-12-07T04:31:27;29.00;;;18.40;;
51525;SDS011;37611;51.794;21.590;2023-12-07T04:35:29;39.00;;;20.30;;
51525;SDS011;37611;51.794;21.590;2023-12-07T04:39:31;32.00;;;20.80;;
51525;SDS011;37611;51.794;21.590;2023-12-07T04:43:33;30.70;;;20.20;;
51525;SDS011;37611;51.794;21.590;2023-12-07T04:47:35;34.40;;;20.20;;
51525;SDS011;37611;51.794;21.590;2023-12-07T04:51:37;32.20;;;19.40;;
51525;SDS011;37611;51.794;21.590;2023-12-07T04:55:39;30.10;;;20.10;;
51525;SDS011;37611;51.794;21.590;2023-12-07T04:59:41;30.50;;;18.50;;
51525;SDS011;37611;51.794;21.590;2023-12-07T05:03:43;68.30;;;46.90;;
51525;SDS011;37611;51.794;21.590;2023-12-07T05:07:45;37.60;;;24.30;;
51525;SDS011;37611;51.794;21.590;2023-12-07T05:11:47;33.70;;;22.00;;
51525;SDS011;37611;51.794;21.590;2023-12-07T05:15:48;45.20;;;31.10;;
51525;SDS011;37611;51.794;21.590;2023-12-07T05:19:50;44.10;;;29.50;;
51525;SDS011;37611;51.794;21.590;2023-12-07T05:23:52;54.60;;;35.00;;
51525;SDS011;37611;51.794;21.590;2023-12-07T05:27:55;39.70;;;25.20;;
51525;SDS011;37611;51.794;21.590;2023-12-07T05:31:59;43.60;;;27.70;;
51525;SDS011;37611;51.794;21.590;2023-12-07T05:36:03;39.10;;;25.70;;
51525;SDS011;37611;51.794;21.590;2023-12-07T05:40:08;46.90;;;30.10;;
51525;SDS011;37611;51.794;21.590;2023-12-07T05:44:13;42.20;;;27.00;;
51525;SDS011;37611;51.794;21.590;2023-12-07T05:48:15;48.60;;;30.50;;
51525;SDS011;37611;51.794;21.590;2023-12-07T05:52:17;35.60;;;24.50;;
51525;SDS011;37611;51.794;21.590;2023-12-07T05:56:19;38.80;;;26.80;;
51525;SDS011;37611;51.794;21.590;2023-12-07T06:00:24;37.50;;;26.40;;
51525;SDS011;37611;51.794;21.590;2023-12-07T06:04:26;47.20;;;30.80;;
51525;SDS011;37611;51.794;21.590;2023-12-07T06:08:28;46.80;;;32.90;;
51525;SDS011;37611;51.794;21.590;2023-12-07T06:12:30;47.20;;;33.10;;
51525;SDS011;37611;51.794;21.590;2023-12-07T06:16:32;45.90;;;34.10;;
51525;SDS011;37611;51.794;21.590;2023-12-07T06:20:34;58.60;;;40.20;;
51525;SDS011;37611;51.794;21.590;2023-12-07T06:24:36;61.20;;;44.10;;
51525;SDS011;37611;51.794;21.590;2023-12-07T06:28:38;54.40;;;39.90;;
51525;SDS011;37611;51.794;21.590;2023-12-07T06:32:41;60.40;;;41.10;;
51525;SDS011;37611;51.794;21.590;2023-12-07T06:36:43;63.10;;;41.70;;
51525;SDS011;37611;51.794;21.590;2023-12-07T06:40:45;75.90;;;51.30;;
51525;SDS011;37611;51.794;21.590;2023-12-07T06:44:47;67.90;;;48.00;;
51525;SDS011;37611;51.794;21.590;2023-12-07T06:48:52;66.90;;;42.60;;
51525;SDS011;37611;51.794;21.590;2023-12-07T06:52:54;51.40;;;37.60;;
51525;SDS011;37611;51.794;21.590;2023-12-07T06:56:57;58.00;;;36.70;;
51525;SDS011;37611;51.794;21.590;2023-12-07T07:00:58;60.50;;;39.30;;
51525;SDS011;37611;51.794;21.590;2023-12-07T07:05:00;56.80;;;39.40;;
51525;SDS011;37611;51.794;21.590;2023-12-07T07:09:02;56.00;;;41.40;;
51525;SDS011;37611;51.794;21.590;2023-12-07T07:13:06;64.60;;;43.60;;
51525;SDS011;37611;51.794;21.590;2023-12-07T07:17:08;56.00;;;36.60;;
51525;SDS011;37611;51.794;21.590;2023-12-07T07:21:09;55.10;;;38.90;;
51525;SDS011;37611;51.794;21.590;2023-12-07T07:25:11;53.10;;;34.30;;
51525;SDS011;37611;51.794;21.590;2023-12-07T07:29:13;49.10;;;34.30;;
51525;SDS011;37611;51.794;21.590;2023-12-07T07:33:15;68.50;;;48.00;;
51525;SDS011;37611;51.794;21.590;2023-12-07T07:37:16;55.10;;;37.80;;
51525;SDS011;37611;51.794;21.590;2023-12-07T07:41:18;52.50;;;38.20;;
51525;SDS011;37611;51.794;21.590;2023-12-07T07:45:20;49.70;;;36.10;;
51525;SDS011;37611;51.794;21.590;2023-12-07T07:49:21;84.00;;;52.00;;
51525;SDS011;37611;51.794;21.590;2023-12-07T07:53:23;61.30;;;43.90;;
51525;SDS011;37611;51.794;21.590;2023-12-07T07:57:25;45.80;;;35.10;;
51525;SDS011;37611;51.794;21.590;2023-12-07T08:01:27;50.00;;;36.00;;
51525;SDS011;37611;51.794;21.590;2023-12-07T08:05:29;43.60;;;30.90;;
51525;SDS011;37611;51.794;21.590;2023-12-07T08:09:31;53.30;;;36.70;;
51525;SDS011;37611;51.794;21.590;2023-12-07T08:13:32;59.10;;;39.80;;
51525;SDS011;37611;51.794;21.590;2023-12-07T08:17:34;70.40;;;41.40;;
51525;SDS011;37611;51.794;21.590;2023-12-07T08:21:36;61.80;;;41.00;;
51525;SDS011;37611;51.794;21.590;2023-12-07T08:25:38;60.40;;;38.70;;
51525;SDS011;37611;51.794;21.590;2023-12-07T08:29:41;55.80;;;40.10;;
51525;SDS011;37611;51.794;21.590;2023-12-07T08:33:43;46.60;;;33.50;;
51525;SDS011;37611;51.794;21.590;2023-12-07T08:37:45;55.20;;;39.30;;
51525;SDS011;37611;51.794;21.590;2023-12-07T08:41:46;53.10;;;37.10;;
51525;SDS011;37611;51.794;21.590;2023-12-07T08:45:49;47.20;;;26.50;;
51525;SDS011;37611;51.794;21.590;2023-12-07T08:49:51;67.40;;;37.20;;
51525;SDS011;37611;51.794;21.590;2023-12-07T08:53:53;84.80;;;44.10;;
51525;SDS011;37611;51.794;21.590;2023-12-07T08:57:56;87.90;;;47.90;;
51525;SDS011;37611;51.794;21.590;2023-12-07T09:01:58;52.10;;;33.00;;
51525;SDS011;37611;51.794;21.590;2023-12-07T09:06:00;47.30;;;29.00;;
51525;SDS011;37611;51.794;21.590;2023-12-07T09:10:02;52.20;;;33.20;;
51525;SDS011;37611;51.794;21.590;2023-12-07T09:14:05;51.20;;;29.70;;
51525;SDS011;37611;51.794;21.590;2023-12-07T09:18:07;48.00;;;30.50;;
51525;SDS011;37611;51.794;21.590;2023-12-07T09:22:08;30.80;;;18.30;;
51525;SDS011;37611;51.794;21.590;2023-12-07T09:26:11;73.40;;;47.90;;
51525;SDS011;37611;51.794;21.590;2023-12-07T09:30:13;73.30;;;47.60;;
51525;SDS011;37611;51.794;21.590;2023-12-07T09:34:15;49.00;;;32.00;;
51525;SDS011;37611;51.794;21.590;2023-12-07T09:38:19;47.20;;;30.70;;
51525;SDS011;37611;51.794;21.590;2023-12-07T09:42:20;56.90;;;35.70;;
51525;SDS011;37611;51.794;21.590;2023-12-07T09:46:22;57.00;;;36.50;;
51525;SDS011;37611;51.794;21.590;2023-12-07T09:50:25;59.90;;;37.20;;
51525;SDS011;37611;51.794;21.590;2023-12-07T09:54:28;37.10;;;23.00;;
51525;SDS011;37611;51.794;21.590;2023-12-07T09:58:31;55.50;;;34.00;;
51525;SDS011;37611;51.794;21.590;2023-12-07T10:02:36;49.00;;;28.80;;
51525;SDS011;37611;51.794;21.590;2023-12-07T10:06:43;58.30;;;34.80;;
51525;SDS011;37611;51.794;21.590;2023-12-07T10:10:49;47.60;;;30.30;;
51525;SDS011;37611;51.794;21.590;2023-12-07T10:15:15;53.70;;;39.90;;
51525;SDS011;37611;51.794;21.590;2023-12-07T10:19:18;65.80;;;46.20;;
51525;SDS011;37611;51.794;21.590;2023-12-07T10:23:22;68.60;;;45.30;;
51525;SDS011;37611;51.794;21.590;2023-12-07T10:27:26;57.70;;;40.60;;
51525;SDS011;37611;51.794;21.590;2023-12-07T10:31:29;56.40;;;39.10;;
51525;SDS011;37611;51.794;21.590;2023-12-07T10:35:32;65.30;;;46.90;;
51525;SDS011;37611;51.794;21.590;2023-12-07T10:39:34;60.10;;;41.80;;
51525;SDS011;37611;51.794;21.590;2023-12-07T10:43:36;84.00;;;59.50;;
51525;SDS011;37611;51.794;21.590;2023-12-07T10:47:39;58.00;;;44.00;;
51525;SDS011;37611;51.794;21.590;2023-12-07T10:51:41;81.30;;;49.20;;
51525;SDS011;37611;51.794;21.590;2023-12-07T10:55:55;55.20;;;37.40;;
51525;SDS011;37611;51.794;21.590;2023-12-07T11:00:01;62.60;;;41.90;;
51525;SDS011;37611;51.794;21.590;2023-12-07T11:04:03;55.10;;;38.00;;
51525;SDS011;37611;51.794;21.590;2023-12-07T11:08:07;43.70;;;30.60;;
51525;SDS011;37611;51.794;21.590;2023-12-07T11:12:23;46.80;;;31.10;;
51525;SDS011;37611;51.794;21.590;2023-12-07T11:16:36;67.40;;;43.50;;
51525;SDS011;37611;51.794;21.590;2023-12-07T11:20:39;52.60;;;38.90;;
51525;SDS011;37611;51.794;21.590;2023-12-07T11:24:56;47.90;;;31.20;;
51525;SDS011;37611;51.794;21.590;2023-12-07T11:28:59;60.30;;;41.50;;
51525;SDS011;37611;51.794;21.590;2023-12-07T11:33:05;52.10;;;33.90;;
51525;SDS011;37611;51.794;21.590;2023-12-07T11:37:14;53.30;;;32.70;;
51525;SDS011;37611;51.794;21.590;2023-12-07T11:41:20;61.90;;;41.30;;
51525;SDS011;37611;51.794;21.590;2023-12-07T11:49:50;54.60;;;39.00;;
51525;SDS011;37611;51.794;21.590;2023-12-07T11:53:52;68.30;;;42.40;;
51525;SDS011;37611;51.794;21.590;2023-12-07T11:57:54;62.50;;;42.80;;
51525;SDS011;37611;51.794;21.590;2023-12-07T12:01:55;54.10;;;37.10;;
51525;SDS011;37611;51.794;21.590;2023-12-07T12:06:02;54.60;;;39.10;;
51525;SDS011;37611;51.794;21.590;2023-12-07T12:10:06;70.00;;;47.70;;
51525;SDS011;37611;51.794;21.590;2023-12-07T12:14:09;65.60;;;43.40;;
51525;SDS011;37611;51.794;21.590;2023-12-07T12:18:11;66.10;;;44.40;;
51525;SDS011;37611;51.794;21.590;2023-12-07T12:22:15;73.40;;;41.40;;
51525;SDS011;37611;51.794;21.590;2023-12-07T12:26:16;86.30;;;49.20;;
51525;SDS011;37611;51.794;21.590;2023-12-07T12:30:20;90.00;;;53.80;;
51525;SDS011;37611;51.794;21.590;2023-12-07T12:34:24;73.00;;;46.40;;
51525;SDS011;37611;51.794;21.590;2023-12-07T12:38:26;83.80;;;52.30;;
51525;SDS011;37611;51.794;21.590;2023-12-07T12:42:28;72.90;;;45.70;;
51525;SDS011;37611;51.794;21.590;2023-12-07T12:46:30;60.60;;;38.10;;
51525;SDS011;37611;51.794;21.590;2023-12-07T12:50:41;70.90;;;42.30;;
51525;SDS011;37611;51.794;21.590;2023-12-07T12:54:46;56.50;;;36.70;;
51525;SDS011;37611;51.794;21.590;2023-12-07T12:58:51;57.30;;;38.80;;
51525;SDS011;37611;51.794;21.590;2023-12-07T13:02:53;74.00;;;45.00;;
51525;SDS011;37611;51.794;21.590;2023-12-07T13:06:55;88.20;;;50.00;;
51525;SDS011;37611;51.794;21.590;2023-12-07T13:10:57;82.00;;;47.90;;
51525;SDS011;37611;51.794;21.590;2023-12-07T13:14:59;92.90;;;54.50;;
51525;SDS011;37611;51.794;21.590;2023-12-07T13:19:01;72.40;;;42.80;;
51525;SDS011;37611;51.794;21.590;2023-12-07T13:23:03;68.50;;;43.20;;
51525;SDS011;37611;51.794;21.590;2023-12-07T13:27:04;81.70;;;47.50;;
51525;SDS011;37611;51.794;21.590;2023-12-07T13:31:06;124.80;;;56.30;;
51525;SDS011;37611;51.794;21.590;2023-12-07T13:35:08;88.70;;;52.50;;
51525;SDS011;37611;51.794;21.590;2023-12-07T13:39:10;84.50;;;47.90;;
51525;SDS011;37611;51.794;21.590;2023-12-07T13:43:14;75.20;;;47.20;;
51525;SDS011;37611;51.794;21.590;2023-12-07T13:47:17;91.20;;;54.00;;
51525;SDS011;37611;51.794;21.590;2023-12-07T13:51:19;95.90;;;58.00;;
51525;SDS011;37611;51.794;21.590;2023-12-07T13:55:22;91.90;;;54.40;;
51525;SDS011;37611;51.794;21.590;2023-12-07T13:59:25;79.40;;;42.30;;
51525;SDS011;37611;51.794;21.590;2023-12-07T14:03:27;68.00;;;42.40;;
51525;SDS011;37611;51.794;21.590;2023-12-07T14:07:29;136.80;;;65.40;;
51525;SDS011;37611;51.794;21.590;2023-12-07T14:11:31;82.90;;;47.20;;
51525;SDS011;37611;51.794;21.590;2023-12-07T14:15:33;94.70;;;55.30;;
51525;SDS011;37611;51.794;21.590;2023-12-07T14:19:36;74.80;;;47.70;;
51525;SDS011;37611;51.794;21.590;2023-12-07T14:23:40;77.30;;;48.20;;
51525;SDS011;37611;51.794;21.590;2023-12-07T14:27:41;90.40;;;52.50;;
51525;SDS011;37611;51.794;21.590;2023-12-07T14:31:44;90.30;;;60.60;;
51525;SDS011;37611;51.794;21.590;2023-12-07T14:35:47;130.80;;;88.30;;
51525;SDS011;37611;51.794;21.590;2023-12-07T14:39:50;161.30;;;109.60;;
51525;SDS011;37611;51.794;21.590;2023-12-07T14:43:52;154.80;;;100.10;;
51525;SDS011;37611;51.794;21.590;2023-12-07T14:47:53;136.80;;;90.10;;
51525;SDS011;37611;51.794;21.590;2023-12-07T14:51:55;116.70;;;69.50;;
51525;SDS011;37611;51.794;21.590;2023-12-07T14:56:00;167.20;;;90.40;;
51525;SDS011;37611;51.794;21.590;2023-12-07T15:00:02;114.40;;;61.60;;
51525;SDS011;37611;51.794;21.590;2023-12-07T15:04:05;115.60;;;71.60;;
51525;SDS011;37611;51.794;21.590;2023-12-07T15:08:07;92.20;;;55.90;;
51525;SDS011;37611;51.794;21.590;2023-12-07T15:12:09;83.70;;;54.40;;
51525;SDS011;37611;51.794;21.590;2023-12-07T15:16:10;65.10;;;43.40;;
51525;SDS011;37611;51.794;21.590;2023-12-07T15:20:13;83.60;;;51.90;;
51525;SDS011;37611;51.794;21.590;2023-12-07T15:24:15;113.60;;;65.80;;
51525;SDS011;37611;51.794;21.590;2023-12-07T15:28:17;120.60;;;65.20;;
51525;SDS011;37611;51.794;21.590;2023-12-07T15:32:19;82.60;;;46.60;;
51525;SDS011;37611;51.794;21.590;2023-12-07T15:36:21;98.10;;;61.60;;
51525;SDS011;37611;51.794;21.590;2023-12-07T15:40:23;94.70;;;55.80;;
51525;SDS011;37611;51.794;21.590;2023-12-07T15:44:25;111.10;;;63.40;;
51525;SDS011;37611;51.794;21.590;2023-12-07T15:48:27;95.00;;;56.50;;
51525;SDS011;37611;51.794;21.590;2023-12-07T15:52:29;99.20;;;58.60;;
51525;SDS011;37611;51.794;21.590;2023-12-07T15:56:31;175.80;;;86.50;;
51525;SDS011;37611;51.794;21.590;2023-12-07T16:00:33;104.60;;;57.10;;
51525;SDS011;37611;51.794;21.590;2023-12-07T16:04:35;103.60;;;57.00;;
51525;SDS011;37611;51.794;21.590;2023-12-07T16:08:37;97.40;;;56.00;;
51525;SDS011;37611;51.794;21.590;2023-12-07T16:12:39;102.60;;;54.90;;
51525;SDS011;37611;51.794;21.590;2023-12-07T16:16:41;98.00;;;62.10;;
51525;SDS011;37611;51.794;21.590;2023-12-07T16:20:43;82.00;;;52.10;;
51525;SDS011;37611;51.794;21.590;2023-12-07T16:24:45;116.10;;;58.80;;
51525;SDS011;37611;51.794;21.590;2023-12-07T16:28:47;112.60;;;62.10;;
51525;SDS011;37611;51.794;21.590;2023-12-07T16:32:49;98.60;;;53.60;;
51525;SDS011;37611;51.794;21.590;2023-12-07T16:36:51;75.20;;;44.10;;
51525;SDS011;37611;51.794;21.590;2023-12-07T16:40:53;121.60;;;68.10;;
51525;SDS011;37611;51.794;21.590;2023-12-07T16:44:55;141.00;;;76.30;;
51525;SDS011;37611;51.794;21.590;2023-12-07T16:48:59;63.90;;;41.20;;
51525;SDS011;37611;51.794;21.590;2023-12-07T16:53:01;113.50;;;68.20;;
51525;SDS011;37611;51.794;21.590;2023-12-07T16:57:03;80.00;;;45.00;;
51525;SDS011;37611;51.794;21.590;2023-12-07T17:01:06;84.70;;;52.40;;
51525;SDS011;37611;51.794;21.590;2023-12-07T17:05:08;61.80;;;42.00;;
51525;SDS011;37611;51.794;21.590;2023-12-07T17:09:09;141.10;;;69.50;;
51525;SDS011;37611;51.794;21.590;2023-12-07T17:13:11;104.40;;;54.10;;
51525;SDS011;37611;51.794;21.590;2023-12-07T17:17:14;78.00;;;44.90;;
51525;SDS011;37611;51.794;21.590;2023-12-07T17:21:16;78.00;;;46.10;;
51525;SDS011;37611;51.794;21.590;2023-12-07T17:25:17;105.10;;;56.40;;
51525;SDS011;37611;51.794;21.590;2023-12-07T17:29:20;81.40;;;46.00;;
51525;SDS011;37611;51.794;21.590;2023-12-07T17:33:22;88.30;;;52.50;;
51525;SDS011;37611;51.794;21.590;2023-12-07T17:37:24;98.90;;;51.00;;
51525;SDS011;37611;51.794;21.590;2023-12-07T17:41:26;94.90;;;53.00;;
51525;SDS011;37611;51.794;21.590;2023-12-07T17:45:28;83.00;;;47.30;;
51525;SDS011;37611;51.794;21.590;2023-12-07T17:49:30;111.60;;;67.40;;
51525;SDS011;37611;51.794;21.590;2023-12-07T17:53:32;65.10;;;38.40;;
51525;SDS011;37611;51.794;21.590;2023-12-07T17:57:33;103.10;;;59.40;;
51525;SDS011;37611;51.794;21.590;2023-12-07T18:01:35;66.10;;;38.70;;
51525;SDS011;37611;51.794;21.590;2023-12-07T18:05:37;78.00;;;46.80;;
51525;SDS011;37611;51.794;21.590;2023-12-07T18:09:40;80.90;;;47.60;;
51525;SDS011;37611;51.794;21.590;2023-12-07T18:13:42;86.00;;;49.30;;
51525;SDS011;37611;51.794;21.590;2023-12-07T18:17:44;98.70;;;51.20;;
51525;SDS011;37611;51.794;21.590;2023-12-07T18:21:46;68.60;;;37.50;;
51525;SDS011;37611;51.794;21.590;2023-12-07T18:25:48;74.80;;;43.50;;
51525;SDS011;37611;51.794;21.590;2023-12-07T18:29:50;79.50;;;49.20;;
51525;SDS011;37611;51.794;21.590;2023-12-07T18:33:52;84.10;;;51.60;;
51525;SDS011;37611;51.794;21.590;2023-12-07T18:37:54;73.60;;;48.90;;
51525;SDS011;37611;51.794;21.590;2023-12-07T18:41:59;64.80;;;43.80;;
51525;SDS011;37611;51.794;21.590;2023-12-07T18:46:01;75.60;;;46.30;;
51525;SDS011;37611;51.794;21.590;2023-12-07T18:50:07;68.60;;;41.50;;
51525;SDS011;37611;51.794;21.590;2023-12-07T18:54:09;56.40;;;34.40;;
51525;SDS011;37611;51.794;21.590;2023-12-07T18:58:11;58.70;;;35.30;;
51525;SDS011;37611;51.794;21.590;2023-12-07T19:02:13;51.20;;;35.90;;
51525;SDS011;37611;51.794;21.590;2023-12-07T19:06:19;42.10;;;26.90;;
51525;SDS011;37611;51.794;21.590;2023-12-07T19:10:22;56.80;;;36.90;;
51525;SDS011;37611;51.794;21.590;2023-12-07T19:14:24;55.40;;;35.80;;
51525;SDS011;37611;51.794;21.590;2023-12-07T19:18:26;61.90;;;38.30;;
51525;SDS011;37611;51.794;21.590;2023-12-07T19:22:30;55.80;;;34.90;;
51525;SDS011;37611;51.794;21.590;2023-12-07T19:26:33;69.60;;;39.60;;
51525;SDS011;37611;51.794;21.590;2023-12-07T19:30:35;50.20;;;30.70;;
51525;SDS011;37611;51.794;21.590;2023-12-07T19:34:37;56.90;;;37.30;;
51525;SDS011;37611;51.794;21.590;2023-12-07T19:38:39;57.30;;;33.70;;
51525;SDS011;37611;51.794;21.590;2023-12-07T19:42:40;61.50;;;35.40;;
51525;SDS011;37611;51.794;21.590;2023-12-07T19:46:42;80.20;;;47.50;;
51525;SDS011;37611;51.794;21.590;2023-12-07T19:50:44;70.00;;;42.50;;
51525;SDS011;37611;51.794;21.590;2023-12-07T19:54:46;90.40;;;51.50;;
51525;SDS011;37611;51.794;21.590;2023-12-07T19:58:48;62.60;;;39.60;;
51525;SDS011;37611;51.794;21.590;2023-12-07T20:02:50;76.90;;;44.90;;
51525;SDS011;37611;51.794;21.590;2023-12-07T20:06:53;71.60;;;43.70;;
51525;SDS011;37611;51.794;21.590;2023-12-07T20:10:55;96.30;;;50.40;;
51525;SDS011;37611;51.794;21.590;2023-12-07T20:14:57;58.00;;;34.80;;
51525;SDS011;37611;51.794;21.590;2023-12-07T20:19:00;53.20;;;32.70;;
51525;SDS011;37611;51.794;21.590;2023-12-07T20:23:02;63.60;;;39.60;;
51525;SDS011;37611;51.794;21.590;2023-12-07T20:27:04;46.80;;;25.80;;
51525;SDS011;37611;51.794;21.590;2023-12-07T20:31:06;74.70;;;41.30;;
51525;SDS011;37611;51.794;21.590;2023-12-07T20:35:08;51.20;;;32.80;;
51525;SDS011;37611;51.794;21.590;2023-12-07T20:39:10;62.80;;;37.10;;
51525;SDS011;37611;51.794;21.590;2023-12-07T20:43:12;80.90;;;47.60;;
51525;SDS011;37611;51.794;21.590;2023-12-07T20:47:14;47.50;;;29.00;;
51525;SDS011;37611;51.794;21.590;2023-12-07T20:51:16;54.60;;;34.90;;
51525;SDS011;37611;51.794;21.590;2023-12-07T20:55:18;61.40;;;35.80;;
51525;SDS011;37611;51.794;21.590;2023-12-07T20:59:20;59.70;;;35.40;;
51525;SDS011;37611;51.794;21.590;2023-12-07T21:03:22;80.30;;;41.30;;
51525;SDS011;37611;51.794;21.590;2023-12-07T21:07:24;73.60;;;39.70;;
51525;SDS011;37611;51.794;21.590;2023-12-07T21:11:26;84.50;;;46.00;;
51525;SDS011;37611;51.794;21.590;2023-12-07T21:15:29;90.10;;;55.30;;
51525;SDS011;37611;51.794;21.590;2023-12-07T21:19:31;65.10;;;34.90;;
51525;SDS011;37611;51.794;21.590;2023-12-07T21:23:33;56.20;;;34.50;;
51525;SDS011;37611;51.794;21.590;2023-12-07T21:27:35;79.80;;;35.50;;
51525;SDS011;37611;51.794;21.590;2023-12-07T21:31:37;65.90;;;34.30;;
51525;SDS011;37611;51.794;21.590;2023-12-07T21:35:39;55.10;;;33.20;;
51525;SDS011;37611;51.794;21.590;2023-12-07T21:39:41;58.80;;;36.70;;
51525;SDS011;37611;51.794;21.590;2023-12-07T21:43:44;56.10;;;34.20;;
51525;SDS011;37611;51.794;21.590;2023-12-07T21:47:47;56.40;;;34.40;;
51525;SDS011;37611;51.794;21.590;2023-12-07T21:51:49;78.30;;;41.40;;
51525;SDS011;37611;51.794;21.590;2023-12-07T21:55:51;60.80;;;32.60;;
51525;SDS011;37611;51.794;21.590;2023-12-07T21:59:53;61.10;;;35.60;;
51525;SDS011;37611;51.794;21.590;2023-12-07T22:03:55;71.30;;;40.20;;
51525;SDS011;37611;51.794;21.590;2023-12-07T22:07:56;69.40;;;41.40;;
51525;SDS011;37611;51.794;21.590;2023-12-07T22:11:58;51.80;;;34.70;;
51525;SDS011;37611;51.794;21.590;2023-12-07T22:16:01;62.10;;;36.20;;
51525;SDS011;37611;51.794;21.590;2023-12-07T22:20:04;61.60;;;33.50;;
51525;SDS011;37611;51.794;21.590;2023-12-07T22:24:10;52.90;;;30.90;;
51525;SDS011;37611;51.794;21.590;2023-12-07T22:28:11;53.80;;;31.30;;
51525;SDS011;37611;51.794;21.590;2023-12-07T22:32:13;51.20;;;31.30;;
51525;SDS011;37611;51.794;21.590;2023-12-07T22:36:15;48.30;;;26.90;;
51525;SDS011;37611;51.794;21.590;2023-12-07T22:40:17;48.10;;;29.80;;
51525;SDS011;37611;51.794;21.590;2023-12-07T22:44:19;49.40;;;28.80;;
51525;SDS011;37611;51.794;21.590;2023-12-07T22:48:21;43.10;;;28.60;;
51525;SDS011;37611;51.794;21.590;2023-12-07T22:52:23;43.70;;;26.20;;
51525;SDS011;37611;51.794;21.590;2023-12-07T22:56:25;52.90;;;29.40;;
51525;SDS011;37611;51.794;21.590;2023-12-07T23:00:27;45.50;;;25.20;;
51525;SDS011;37611;51.794;21.590;2023-12-07T23:04:29;44.10;;;25.10;;
51525;SDS011;37611;51.794;21.590;2023-12-07T23:08:30;52.60;;;29.40;;
51525;SDS011;37611;51.794;21.590;2023-12-07T23:12:32;41.30;;;22.90;;
51525;SDS011;37611;51.794;21.590;2023-12-07T23:16:34;39.40;;;24.00;;
51525;SDS011;37611;51.794;21.590;2023-12-07T23:20:37;50.00;;;28.10;;
51525;SDS011;37611;51.794;21.590;2023-12-07T23:24:39;49.60;;;29.70;;
51525;SDS011;37611;51.794;21.590;2023-12-07T23:28:41;45.90;;;27.30;;